createdAt,value
2023-03-11T00:02:02.360Z,90.02
2023-03-11T00:04:28.975Z,90.14
2023-03-11T00:06:55.540Z,89.75
2023-03-11T00:09:22.275Z,89.68
2023-03-11T00:11:48.880Z,90.42
2023-03-11T00:14:16.868Z,89.76
2023-03-11T00:16:43.659Z,89.96
2023-03-11T00:19:10.737Z,90.03
2023-03-11T00:21:37.320Z,90.25
2023-03-11T00:24:04.278Z,90.08
2023-03-11T00:26:30.904Z,90.30
2023-03-11T00:28:57.599Z,90.84
2023-03-11T00:31:25.958Z,90.84
2023-03-11T00:33:52.658Z,91.30
2023-03-11T00:36:24.685Z,91.30
2023-03-11T00:38:51.738Z,91.39
2023-03-11T00:41:18.365Z,91.23
2023-03-11T00:43:44.989Z,91.15
2023-03-11T00:46:11.737Z,91.37
2023-03-11T00:48:39.851Z,91.50
2023-03-11T00:51:07.931Z,91.71
2023-03-11T00:53:34.641Z,92.16
2023-03-11T00:56:07.010Z,91.79
2023-03-11T00:58:33.641Z,91.96
2023-03-11T01:01:00.245Z,92.17
2023-03-11T01:03:26.998Z,92.25
2023-03-11T01:05:54.982Z,91.88
2023-03-11T01:08:21.637Z,92.05
2023-03-11T01:10:48.183Z,92.58
2023-03-11T01:13:14.785Z,92.23
2023-03-11T01:15:41.587Z,92.22
2023-03-11T01:18:08.294Z,92.45
2023-03-11T01:20:35.710Z,92.42
2023-03-11T01:23:03.900Z,92.24
2023-03-11T01:25:30.910Z,92.55
2023-03-11T01:27:57.755Z,92.52
2023-03-11T01:30:25.444Z,92.40
2023-03-11T01:32:53.855Z,92.47
2023-03-11T01:35:23.208Z,92.50
2023-03-11T01:37:50.256Z,92.43
2023-03-11T01:40:21.368Z,92.30
2023-03-11T01:42:47.940Z,92.44
2023-03-11T01:45:33.000Z,92.85
2023-03-11T01:47:59.701Z,92.47
2023-03-11T01:50:30.810Z,93.03
2023-03-11T01:52:57.456Z,92.47
2023-03-11T01:55:26.217Z,92.79
2023-03-11T01:57:53.863Z,92.94
2023-03-11T02:00:21.342Z,92.89
2023-03-11T02:02:51.780Z,92.54
2023-03-11T02:05:20.085Z,93.06
2023-03-11T02:07:47.729Z,92.71
2023-03-11T02:10:14.787Z,93.05
2023-03-11T02:12:43.540Z,93.13
2023-03-11T02:15:12.249Z,92.67
2023-03-11T02:17:41.427Z,92.79
2023-03-11T02:20:29.780Z,92.64
2023-03-11T02:22:56.980Z,92.98
2023-03-11T02:25:30.958Z,93.32
2023-03-11T02:28:00.974Z,93.29
2023-03-11T02:30:28.828Z,93.02
2023-03-11T02:32:56.699Z,93.23
2023-03-11T02:35:25.244Z,93.01
2023-03-11T02:37:53.666Z,93.20
2023-03-11T02:40:36.476Z,93.32
2023-03-11T02:43:07.382Z,93.10
2023-03-11T02:45:35.858Z,93.16
2023-03-11T02:48:03.566Z,93.36
2023-03-11T02:50:31.711Z,93.53
2023-03-11T02:52:58.270Z,93.16
2023-03-11T02:55:25.003Z,93.30
2023-03-11T02:57:51.581Z,93.06
2023-03-11T03:00:20.110Z,93.25
2023-03-11T03:02:47.209Z,93.39
2023-03-11T03:05:13.819Z,93.05
2023-03-11T03:07:40.576Z,93.52
2023-03-11T03:10:08.348Z,93.09
2023-03-11T03:12:35.177Z,93.49
2023-03-11T03:15:01.884Z,93.43
2023-03-11T03:17:29.889Z,93.08
2023-03-11T03:19:56.478Z,93.50
2023-03-11T03:22:23.114Z,93.58
2023-03-11T03:24:49.724Z,93.11
2023-03-11T03:27:16.326Z,93.58
2023-03-11T03:29:43.051Z,93.36
2023-03-11T03:32:09.782Z,93.41
2023-03-11T03:34:38.158Z,93.11
2023-03-11T03:37:05.132Z,93.07
2023-03-11T03:39:32.932Z,93.36
2023-03-11T03:41:59.491Z,93.38
2023-03-11T03:44:26.150Z,93.15
2023-03-11T03:46:52.747Z,93.17
2023-03-11T03:49:19.360Z,93.28
2023-03-11T03:51:47.372Z,93.18
2023-03-11T03:54:15.322Z,93.23
2023-03-11T03:56:41.943Z,93.08
2023-03-11T03:59:08.514Z,93.65
2023-03-11T04:01:35.089Z,93.24
2023-03-11T04:04:01.724Z,93.64
2023-03-11T04:06:28.371Z,93.40
2023-03-11T04:08:56.578Z,93.10
2023-03-11T04:11:23.215Z,93.40
2023-03-11T04:13:49.896Z,93.01
2023-03-11T04:16:20.157Z,93.02
2023-03-11T04:18:47.752Z,93.46
2023-03-11T04:21:14.827Z,93.07
2023-03-11T04:23:41.370Z,93.40
2023-03-11T04:26:09.346Z,93.09
2023-03-11T04:28:35.986Z,93.31
2023-03-11T04:31:02.765Z,93.24
2023-03-11T04:33:29.427Z,92.94
2023-03-11T04:35:56.774Z,93.08
2023-03-11T04:38:23.715Z,93.31
2023-03-11T04:40:50.454Z,92.68
2023-03-11T04:43:18.428Z,93.13
2023-03-11T04:45:45.017Z,92.71
2023-03-11T04:48:11.812Z,93.17
2023-03-11T04:50:38.464Z,92.97
2023-03-11T04:53:05.047Z,93.18
2023-03-11T04:55:31.864Z,93.30
2023-03-11T04:57:58.423Z,92.80
2023-03-11T05:00:26.476Z,93.12
2023-03-11T05:02:53.412Z,93.04
2023-03-11T05:05:20.429Z,92.81
2023-03-11T05:07:47.058Z,93.26
2023-03-11T05:10:14.203Z,92.75
2023-03-11T05:12:41.149Z,92.93
2023-03-11T05:15:08.234Z,92.48
2023-03-11T05:17:36.259Z,92.98
2023-03-11T05:20:03.056Z,92.55
2023-03-11T05:22:29.724Z,92.68
2023-03-11T05:24:56.521Z,92.28
2023-03-11T05:27:23.144Z,92.34
2023-03-11T05:29:49.792Z,92.42
2023-03-11T05:32:17.067Z,92.71
2023-03-11T05:34:45.353Z,92.05
2023-03-11T05:37:12.281Z,92.58
2023-03-11T05:39:38.909Z,92.20
2023-03-11T05:42:06.226Z,92.21
2023-03-11T05:44:33.828Z,92.37
2023-03-11T05:47:00.723Z,92.37
2023-03-11T05:49:27.534Z,92.50
2023-03-11T05:51:58.390Z,92.76
2023-03-11T05:54:25.520Z,92.48
2023-03-11T05:56:52.169Z,92.60
2023-03-11T05:59:18.835Z,92.26
2023-03-11T06:01:45.515Z,91.88
2023-03-11T06:04:12.591Z,91.72
2023-03-11T06:06:40.036Z,91.79
2023-03-11T06:09:12.171Z,91.60
2023-03-11T06:11:38.991Z,91.88
2023-03-11T06:14:06.018Z,91.82
2023-03-11T06:16:32.867Z,91.19
2023-03-11T06:18:59.557Z,91.55
2023-03-11T06:21:26.621Z,91.12
2023-03-11T06:23:53.682Z,90.65
2023-03-11T06:26:23.294Z,90.71
2023-03-11T06:28:51.573Z,90.19
2023-03-11T06:31:20.276Z,90.30
2023-03-11T06:33:47.597Z,90.15
2023-03-11T06:36:15.974Z,90.41
2023-03-11T06:38:43.131Z,89.38
2023-03-11T06:41:10.606Z,89.08
2023-03-11T06:43:39.202Z,89.07
2023-03-11T06:46:10.281Z,88.97
2023-03-11T06:48:36.906Z,88.62
2023-03-11T06:51:03.966Z,88.84
2023-03-11T06:53:30.828Z,88.21
2023-03-11T06:55:59.118Z,87.64
2023-03-11T06:58:25.928Z,87.50
2023-03-11T07:00:54.004Z,87.24
2023-03-11T07:03:20.765Z,87.30
2023-03-11T07:05:50.874Z,86.64
2023-03-11T07:08:17.649Z,86.59
2023-03-11T07:10:44.380Z,86.93
2023-03-11T07:13:13.175Z,86.78
2023-03-11T07:15:39.812Z,86.00
2023-03-11T07:18:07.776Z,85.86
2023-03-11T07:20:34.815Z,85.51
2023-03-11T07:23:01.433Z,85.43
2023-03-11T07:25:28.313Z,85.45
2023-03-11T07:27:54.890Z,84.47
2023-03-11T07:30:21.608Z,84.21
2023-03-11T07:32:48.331Z,83.67
2023-03-11T07:35:16.667Z,83.53
2023-03-11T07:37:43.249Z,84.03
2023-03-11T07:40:11.094Z,83.43
2023-03-11T07:42:37.645Z,83.26
2023-03-11T07:45:04.851Z,83.03
2023-03-11T07:47:31.526Z,82.77
2023-03-11T07:49:58.166Z,82.38
2023-03-11T07:52:29.307Z,83.28
2023-03-11T07:54:55.934Z,82.22
2023-03-11T07:57:22.570Z,81.92
2023-03-11T07:59:50.645Z,81.81
2023-03-11T08:02:17.414Z,81.79
2023-03-11T08:04:44.125Z,81.16
2023-03-11T08:07:10.727Z,80.54
2023-03-11T08:09:38.699Z,80.63
2023-03-11T08:12:05.749Z,79.91
2023-03-11T08:14:32.350Z,79.19
2023-03-11T08:16:58.989Z,80.15
2023-03-11T08:19:25.596Z,80.57
2023-03-11T08:21:52.286Z,80.55
2023-03-11T08:24:18.964Z,80.61
2023-03-11T08:26:47.137Z,80.20
2023-03-11T08:29:13.789Z,80.36
2023-03-11T08:31:40.499Z,80.71
2023-03-11T08:34:09.534Z,80.27
2023-03-11T08:36:36.457Z,80.23
2023-03-11T08:39:03.507Z,80.41
2023-03-11T08:41:30.205Z,79.34
2023-03-11T08:43:58.629Z,79.33
2023-03-11T08:46:28.282Z,78.87
2023-03-11T08:48:56.358Z,77.60
2023-03-11T08:51:24.171Z,77.41
2023-03-11T08:53:51.571Z,77.94
2023-03-11T08:56:18.329Z,77.08
2023-03-11T08:58:45.769Z,77.34
2023-03-11T09:01:14.111Z,78.04
2023-03-11T09:03:41.009Z,77.93
2023-03-11T09:06:11.117Z,78.58
2023-03-11T09:08:37.731Z,78.67
2023-03-11T09:11:04.823Z,79.21
2023-03-11T09:13:32.197Z,78.13
2023-03-11T09:15:58.895Z,78.55
2023-03-11T09:18:27.240Z,78.14
2023-03-11T09:20:53.852Z,78.19
2023-03-11T09:23:20.457Z,77.26
2023-03-11T09:25:47.177Z,76.54
2023-03-11T09:28:13.813Z,76.34
2023-03-11T09:30:40.510Z,76.58
2023-03-11T09:33:07.228Z,76.24
2023-03-11T09:35:35.336Z,76.72
2023-03-11T09:38:02.139Z,77.74
2023-03-11T09:40:42.764Z,77.27
2023-03-11T09:43:22.506Z,78.21
2023-03-11T09:45:55.293Z,78.02
2023-03-11T09:48:29.568Z,78.49
2023-03-11T09:51:03.087Z,78.55
2023-03-11T09:53:38.212Z,78.61
2023-03-11T09:56:07.194Z,78.88
2023-03-11T09:58:42.036Z,78.87
2023-03-11T10:01:24.076Z,79.75
2023-03-11T10:03:54.723Z,79.88
2023-03-11T10:06:24.490Z,79.60
2023-03-11T10:08:59.163Z,80.30
2023-03-11T10:11:46.738Z,80.51
2023-03-11T10:14:24.686Z,80.49
2023-03-11T10:17:00.844Z,80.21
2023-03-11T10:19:39.283Z,80.14
2023-03-11T10:22:16.009Z,80.73
2023-03-11T10:24:54.784Z,80.76
2023-03-11T10:27:26.594Z,80.25
2023-03-11T10:29:58.754Z,79.85
2023-03-11T10:32:34.878Z,79.38
2023-03-11T10:35:07.099Z,79.14
2023-03-11T10:37:48.698Z,78.04
2023-03-11T10:40:23.853Z,78.02
2023-03-11T10:42:52.005Z,78.08
2023-03-11T10:45:19.706Z,77.66
2023-03-11T10:47:46.447Z,77.55
2023-03-11T10:50:16.914Z,76.59
2023-03-11T10:53:04.394Z,76.14
2023-03-11T10:55:31.186Z,76.69
2023-03-11T10:58:05.747Z,76.49
2023-03-11T11:00:32.750Z,77.29
2023-03-11T11:03:00.623Z,77.16
2023-03-11T11:05:29.917Z,77.90
2023-03-11T11:08:07.415Z,77.42
2023-03-11T11:10:37.626Z,76.46
2023-03-11T11:13:19.853Z,76.61
2023-03-11T11:15:55.900Z,77.14
2023-03-11T11:18:26.833Z,75.07
2023-03-11T11:20:57.785Z,73.98
2023-03-11T11:23:33.319Z,74.35
2023-03-11T11:26:02.519Z,74.38
2023-03-11T11:28:29.167Z,72.96
2023-03-11T11:30:57.805Z,71.83
2023-03-11T11:33:28.092Z,72.44
2023-03-11T11:35:57.197Z,72.70
2023-03-11T11:38:26.499Z,72.73
2023-03-11T11:40:57.620Z,73.72
2023-03-11T11:43:34.846Z,72.91
2023-03-11T11:46:06.901Z,72.85
2023-03-11T11:48:44.827Z,72.57
2023-03-11T11:51:21.546Z,72.28
2023-03-11T11:53:55.388Z,72.92
2023-03-11T11:56:25.417Z,71.51
2023-03-11T11:58:52.370Z,72.93
2023-03-11T12:01:28.646Z,70.38
2023-03-11T12:04:33.618Z,71.09
2023-03-11T12:07:13.012Z,69.89
2023-03-11T12:09:47.502Z,69.03
2023-03-11T12:12:25.768Z,68.75
2023-03-11T12:15:01.059Z,68.17
2023-03-11T12:17:30.464Z,68.35
2023-03-11T12:20:02.941Z,67.82
2023-03-11T12:22:55.027Z,67.96
2023-03-11T12:25:31.457Z,68.76
2023-03-11T12:28:05.410Z,68.47
2023-03-11T12:30:35.871Z,67.66
2023-03-11T12:33:05.179Z,69.25
2023-03-11T12:35:34.287Z,66.83
2023-03-11T12:38:16.851Z,66.90
2023-03-11T12:40:56.524Z,68.19
2023-03-11T12:44:08.453Z,67.55
2023-03-11T12:47:16.357Z,67.17
2023-03-11T12:49:44.333Z,67.12
2023-03-11T12:52:28.597Z,67.83
2023-03-11T12:55:34.977Z,66.75
2023-03-11T12:58:40.240Z,65.70
2023-03-11T13:01:21.529Z,65.47
2023-03-11T13:03:59.038Z,64.91
2023-03-11T13:07:00.972Z,66.36
2023-03-11T13:09:28.248Z,64.84
2023-03-11T13:11:55.427Z,65.43
2023-03-11T13:14:31.151Z,63.86
2023-03-11T13:17:23.265Z,62.85
2023-03-11T13:19:52.732Z,62.47
2023-03-11T13:22:42.855Z,63.53
2023-03-11T13:25:31.888Z,63.01
2023-03-11T13:28:13.978Z,62.63
2023-03-11T13:30:51.354Z,63.21
2023-03-11T13:33:28.474Z,63.01
2023-03-11T13:36:04.313Z,62.81
2023-03-11T13:38:56.295Z,63.17
2023-03-11T13:41:30.172Z,63.39
2023-03-11T13:44:00.835Z,64.24
2023-03-11T13:46:35.198Z,65.32
2023-03-11T13:49:06.587Z,65.06
2023-03-11T13:51:38.005Z,66.04
2023-03-11T13:54:10.462Z,65.83
2023-03-11T13:56:44.380Z,65.79
2023-03-11T13:59:17.912Z,66.08
2023-03-11T14:01:51.049Z,66.15
2023-03-11T14:04:23.714Z,66.43
2023-03-11T14:06:51.122Z,66.60
2023-03-11T14:09:20.394Z,66.73
2023-03-11T14:11:48.191Z,67.64
2023-03-11T14:14:34.850Z,66.14
2023-03-11T14:17:04.874Z,66.26
2023-03-11T14:19:31.475Z,66.69
2023-03-11T14:21:58.714Z,66.54
2023-03-11T14:24:28.443Z,65.79
2023-03-11T14:26:57.475Z,65.79
2023-03-11T14:29:30.826Z,65.27
2023-03-11T14:31:57.288Z,65.85
2023-03-11T14:34:27.646Z,66.19
2023-03-11T14:36:56.153Z,65.61
2023-03-11T14:39:25.297Z,65.50
2023-03-11T14:41:55.464Z,66.58
2023-03-11T14:44:23.444Z,66.07
2023-03-11T14:46:51.820Z,65.34
2023-03-11T14:49:21.932Z,64.69
2023-03-11T14:51:54.717Z,64.27
2023-03-11T14:54:25.165Z,64.28
2023-03-11T14:56:58.367Z,63.88
2023-03-11T14:59:28.877Z,63.84
2023-03-11T15:02:03.580Z,64.03
2023-03-11T15:04:33.534Z,64.92
2023-03-11T15:07:04.224Z,64.49
2023-03-11T15:09:31.724Z,63.49
2023-03-11T15:12:01.511Z,63.63
2023-03-11T15:14:30.100Z,63.67
2023-03-11T15:17:32.984Z,62.87
2023-03-11T15:19:59.977Z,63.03
2023-03-11T15:22:38.354Z,61.97
2023-03-11T15:25:16.946Z,62.44
2023-03-11T15:27:43.905Z,62.53
2023-03-11T15:30:20.198Z,61.80
2023-03-11T15:32:47.390Z,61.15
2023-03-11T15:35:17.985Z,60.53
2023-03-11T15:37:50.020Z,61.78
2023-03-11T15:40:26.130Z,61.79
2023-03-11T15:43:23.921Z,61.56
2023-03-11T15:45:51.745Z,60.41
2023-03-11T15:48:18.359Z,62.28
2023-03-11T15:50:53.196Z,62.05
2023-03-11T15:53:23.801Z,62.23
2023-03-11T15:55:51.593Z,62.43
2023-03-11T15:58:19.582Z,62.96
2023-03-11T16:00:49.133Z,62.50
2023-03-11T16:03:16.376Z,63.65
2023-03-11T16:05:43.214Z,63.36
2023-03-11T16:08:09.935Z,64.16
2023-03-11T16:10:38.888Z,63.88
2023-03-11T16:13:06.178Z,65.46
2023-03-11T16:15:34.897Z,65.01
2023-03-11T16:18:02.899Z,65.11
2023-03-11T16:20:34.862Z,65.54
2023-03-11T16:23:01.892Z,65.38
2023-03-11T16:25:32.851Z,65.14
2023-03-11T16:28:01.943Z,65.77
2023-03-11T16:30:29.996Z,66.59
2023-03-11T16:32:57.069Z,66.50
2023-03-11T16:35:24.179Z,67.03
2023-03-11T16:37:51.455Z,67.61
2023-03-11T16:40:20.163Z,67.41
2023-03-11T16:42:47.486Z,67.33
2023-03-11T16:45:17.865Z,67.64
2023-03-11T16:47:44.605Z,67.90
2023-03-11T16:50:11.626Z,68.59
2023-03-11T16:52:38.523Z,68.69
2023-03-11T16:55:06.034Z,68.78
2023-03-11T16:57:32.990Z,69.02
2023-03-11T16:59:59.771Z,69.59
2023-03-11T17:02:27.877Z,69.61
2023-03-11T17:04:54.578Z,69.92
2023-03-11T17:07:21.221Z,69.98
2023-03-11T17:09:47.906Z,70.23
2023-03-11T17:12:14.541Z,70.29
2023-03-11T17:14:41.097Z,70.10
2023-03-11T17:17:07.696Z,70.96
2023-03-11T17:19:35.694Z,71.41
2023-03-11T17:22:02.286Z,71.29
2023-03-11T17:24:28.985Z,71.58
2023-03-11T17:26:55.750Z,71.51
2023-03-11T17:29:22.520Z,71.81
2023-03-11T17:31:49.189Z,71.72
2023-03-11T17:34:16.352Z,72.25
2023-03-11T17:36:44.382Z,72.24
2023-03-11T17:39:11.110Z,72.39
2023-03-11T17:41:37.854Z,73.07
2023-03-11T17:44:04.837Z,73.27
2023-03-11T17:46:31.489Z,73.47
2023-03-11T17:48:58.270Z,73.46
2023-03-11T17:51:26.042Z,73.42
2023-03-11T17:53:55.982Z,73.59
2023-03-11T17:56:23.070Z,74.16
2023-03-11T17:58:50.913Z,73.93
2023-03-11T18:01:19.565Z,74.22
2023-03-11T18:03:46.513Z,74.30
2023-03-11T18:06:13.907Z,74.63
2023-03-11T18:08:40.752Z,74.45
2023-03-11T18:11:10.766Z,74.28
2023-03-11T18:13:38.760Z,74.32
2023-03-11T18:16:09.449Z,74.52
2023-03-11T18:18:37.125Z,75.00
2023-03-11T18:21:06.278Z,74.84
2023-03-11T18:23:33.723Z,75.09
2023-03-11T18:26:02.486Z,75.10
2023-03-11T18:28:30.472Z,75.66
2023-03-11T18:30:57.171Z,75.51
2023-03-11T18:33:24.911Z,76.11
2023-03-11T18:35:51.598Z,75.98
2023-03-11T18:38:18.231Z,75.60
2023-03-11T18:40:44.893Z,75.98
2023-03-11T18:43:12.899Z,76.30
2023-03-11T18:45:40.961Z,76.29
2023-03-11T18:48:07.616Z,76.10
2023-03-11T18:50:34.331Z,76.30
2023-03-11T18:53:01.076Z,76.62
2023-03-11T18:55:27.801Z,76.74
2023-03-11T18:57:54.408Z,76.72
2023-03-11T19:00:22.031Z,76.74
2023-03-11T19:02:52.277Z,77.13
2023-03-11T19:05:18.988Z,77.30
2023-03-11T19:07:45.711Z,77.01
2023-03-11T19:10:12.834Z,77.22
2023-03-11T19:12:39.407Z,77.10
2023-03-11T19:15:07.356Z,77.55
2023-03-11T19:17:34.181Z,77.35
2023-03-11T19:20:02.734Z,77.69
2023-03-11T19:22:29.410Z,77.81
2023-03-11T19:24:56.023Z,77.72
2023-03-11T19:27:22.657Z,77.62
2023-03-11T19:29:49.232Z,77.57
2023-03-11T19:32:16.525Z,77.93
2023-03-11T19:34:43.201Z,78.10
2023-03-11T19:37:11.394Z,78.13
2023-03-11T19:39:38.162Z,77.98
2023-03-11T19:42:05.314Z,78.06
2023-03-11T19:44:31.911Z,78.01
2023-03-11T19:46:58.970Z,78.13
2023-03-11T19:49:25.753Z,78.51
2023-03-11T19:51:52.483Z,78.22
2023-03-11T19:54:20.516Z,77.83
2023-03-11T19:56:47.277Z,78.01
2023-03-11T19:59:14.305Z,77.79
2023-03-11T20:01:40.943Z,77.95
2023-03-11T20:04:07.906Z,78.31
2023-03-11T20:06:34.713Z,78.17
2023-03-11T20:09:01.468Z,78.05
2023-03-11T20:11:29.491Z,77.67
2023-03-11T20:13:56.230Z,78.03
2023-03-11T20:16:22.878Z,77.97
2023-03-11T20:18:50.067Z,77.90
2023-03-11T20:21:16.981Z,78.07
2023-03-11T20:23:43.728Z,77.99
2023-03-11T20:26:12.772Z,78.25
2023-03-11T20:28:41.283Z,78.30
2023-03-11T20:31:10.888Z,78.05
2023-03-11T20:33:38.199Z,77.75
2023-03-11T20:36:06.532Z,77.46
2023-03-11T20:38:33.597Z,77.33
2023-03-11T20:41:00.448Z,77.23
2023-03-11T20:43:27.228Z,77.28
2023-03-11T20:45:55.317Z,77.30
2023-03-11T20:48:22.001Z,77.08
2023-03-11T20:50:48.715Z,76.84
2023-03-11T20:53:16.090Z,77.07
2023-03-11T20:55:42.911Z,77.07
2023-03-11T20:58:10.096Z,76.82
2023-03-11T21:00:36.852Z,76.74
2023-03-11T21:03:05.014Z,76.33
2023-03-11T21:05:36.300Z,76.87
2023-03-11T21:08:03.592Z,76.52
2023-03-11T21:10:30.669Z,76.46
2023-03-11T21:12:57.711Z,76.43
2023-03-11T21:15:25.426Z,76.51
2023-03-11T21:17:52.089Z,76.48
2023-03-11T21:20:20.219Z,76.99
2023-03-11T21:22:47.102Z,76.46
2023-03-11T21:25:14.065Z,76.70
2023-03-11T21:27:40.783Z,76.37
2023-03-11T21:30:09.452Z,76.38
2023-03-11T21:32:36.288Z,76.67
2023-03-11T21:35:03.138Z,76.47
2023-03-11T21:37:31.288Z,76.59
2023-03-11T21:39:58.065Z,76.91
2023-03-11T21:42:24.996Z,76.76
2023-03-11T21:44:51.882Z,76.71
2023-03-11T21:47:19.061Z,76.55
2023-03-11T21:49:45.699Z,76.61
2023-03-11T21:52:12.444Z,77.00
2023-03-11T21:54:40.412Z,76.66
2023-03-11T21:57:07.217Z,76.68
2023-03-11T21:59:33.856Z,76.89
2023-03-11T22:02:00.793Z,76.99
2023-03-11T22:04:27.631Z,76.73
2023-03-11T22:06:56.952Z,76.92
2023-03-11T22:09:23.893Z,76.68
2023-03-11T22:11:51.961Z,76.97
2023-03-11T22:14:18.783Z,76.86
2023-03-11T22:16:45.465Z,76.92
2023-03-11T22:19:12.311Z,76.78
2023-03-11T22:21:39.130Z,76.88
2023-03-11T22:24:06.359Z,77.17
2023-03-11T22:26:33.348Z,76.98
2023-03-11T22:29:03.790Z,77.08
2023-03-11T22:31:30.774Z,76.80
2023-03-11T22:33:57.814Z,77.03
2023-03-11T22:36:24.557Z,76.99
2023-03-11T22:38:51.210Z,77.42
2023-03-11T22:41:17.865Z,77.05
2023-03-11T22:43:44.578Z,77.64
2023-03-11T22:46:12.585Z,77.32
2023-03-11T22:48:39.205Z,77.78
2023-03-11T22:51:06.244Z,78.00
2023-03-11T22:53:33.042Z,77.87
2023-03-11T22:55:59.624Z,77.48
2023-03-11T22:58:26.248Z,77.74
2023-03-11T23:00:52.781Z,77.54
2023-03-11T23:03:20.776Z,78.00
2023-03-11T23:05:47.454Z,77.56
2023-03-11T23:08:15.967Z,77.90
2023-03-11T23:10:44.629Z,78.13
2023-03-11T23:13:11.808Z,78.20
2023-03-11T23:15:40.089Z,78.13
2023-03-11T23:18:06.779Z,77.92
2023-03-11T23:20:36.449Z,78.19
2023-03-11T23:23:03.559Z,78.10
2023-03-11T23:25:30.580Z,78.48
2023-03-11T23:27:57.239Z,77.86
2023-03-11T23:30:24.274Z,78.50
2023-03-11T23:32:50.896Z,78.43
2023-03-11T23:35:17.608Z,78.63
2023-03-11T23:37:49.408Z,78.40
2023-03-11T23:40:16.513Z,78.85
2023-03-11T23:42:43.479Z,78.59
2023-03-11T23:45:10.865Z,78.25
2023-03-11T23:47:37.507Z,78.12
2023-03-11T23:50:05.505Z,78.28
2023-03-11T23:52:32.835Z,78.74
2023-03-11T23:55:01.259Z,78.37
2023-03-11T23:57:27.834Z,78.44
2023-03-11T23:59:54.464Z,78.52
